createdAt,value
2023-01-20T00:04:14.043Z,36.67
2023-01-20T00:10:16.186Z,20.50
2023-01-20T00:15:24.513Z,48.00
2023-01-20T00:20:47.712Z,44.00
2023-01-20T00:25:51.738Z,36.00
2023-01-20T00:30:55.295Z,44.00
2023-01-20T00:42:33.803Z,54.00
2023-01-20T00:54:07.408Z,53.33
2023-01-20T00:59:13.423Z,56.33
2023-01-20T01:04:16.702Z,45.00
2023-01-20T01:09:22.019Z,46.00
2023-01-20T01:14:26.245Z,45.00
2023-01-20T01:19:29.496Z,33.50
2023-01-20T01:24:32.880Z,48.00
2023-01-20T01:29:36.180Z,52.00
2023-01-20T01:34:40.087Z,55.50
2023-01-20T01:39:44.331Z,55.50
2023-01-20T01:50:43.637Z,52.00
2023-01-20T01:56:14.708Z,50.00
2023-01-20T02:01:26.827Z,52.00
2023-01-20T02:07:31.609Z,57.67
2023-01-20T02:12:47.639Z,54.00
2023-01-20T02:18:34.009Z,53.00
2023-01-20T02:24:53.395Z,54.00
2023-01-20T02:31:05.036Z,55.00
2023-01-20T02:36:19.264Z,57.00
2023-01-20T02:41:51.809Z,57.00
2023-01-20T02:47:27.207Z,55.50
2023-01-20T02:52:37.397Z,61.00
2023-01-20T02:57:46.132Z,55.00
2023-01-20T03:02:53.895Z,49.00
2023-01-20T03:07:59.838Z,57.00
2023-01-20T03:13:16.795Z,52.33
2023-01-20T03:18:21.064Z,49.50
2023-01-20T03:23:27.950Z,52.00
2023-01-20T03:28:53.297Z,53.00
2023-01-20T03:33:59.812Z,56.00
2023-01-20T03:39:04.619Z,51.00
2023-01-20T03:44:41.002Z,54.00
2023-01-20T03:49:59.300Z,59.00
2023-01-20T03:55:14.807Z,55.00
2023-01-20T04:05:21.922Z,59.00
2023-01-20T04:10:27.726Z,54.00
2023-01-20T04:18:59.300Z,52.50
2023-01-20T04:24:23.050Z,57.00
2023-01-20T04:29:27.929Z,54.00
2023-01-20T04:34:31.272Z,57.00
2023-01-20T04:39:34.589Z,52.50
2023-01-20T04:44:38.290Z,52.50
2023-01-20T04:49:41.655Z,52.50
2023-01-20T04:54:45.215Z,54.00
2023-01-20T04:59:48.472Z,56.00
2023-01-20T05:04:51.697Z,55.50
2023-01-20T05:09:54.963Z,53.00
2023-01-20T05:14:58.215Z,51.00
2023-01-20T05:20:01.513Z,58.00
2023-01-20T05:25:05.635Z,62.33
2023-01-20T05:30:12.370Z,58.50
2023-01-20T05:35:16.152Z,61.00
2023-01-20T05:40:19.749Z,54.00
2023-01-20T05:45:23.767Z,48.50
2023-01-20T05:50:29.795Z,51.00
2023-01-20T05:55:33.660Z,50.00
2023-01-20T06:00:36.939Z,54.00
2023-01-20T06:05:40.431Z,50.00
2023-01-20T06:10:43.867Z,50.00
2023-01-20T06:15:54.472Z,51.00
2023-01-20T06:20:59.806Z,49.00
2023-01-20T06:26:06.884Z,53.00
2023-01-20T06:31:15.439Z,45.00
2023-01-20T06:36:18.771Z,56.67
2023-01-20T06:41:22.293Z,49.00
2023-01-20T06:46:25.683Z,54.00
2023-01-20T06:51:30.721Z,67.00
2023-01-20T06:56:35.238Z,56.00
2023-01-20T07:01:39.182Z,58.50
2023-01-20T07:06:43.640Z,51.00
2023-01-20T07:11:48.672Z,51.50
2023-01-20T07:16:52.113Z,53.00
2023-01-20T07:21:55.455Z,53.67
2023-01-20T07:26:59.275Z,56.67
2023-01-20T07:33:21.011Z,55.50
2023-01-20T07:38:25.011Z,56.00
2023-01-20T07:43:29.105Z,51.50
2023-01-20T07:48:34.014Z,65.00
2023-01-20T07:53:39.891Z,62.00
2023-01-20T07:58:45.592Z,60.50
2023-01-20T08:03:50.408Z,54.00
2023-01-20T08:09:26.266Z,58.00
2023-01-20T08:14:42.787Z,60.00
2023-01-20T08:19:47.622Z,47.00
2023-01-20T08:24:51.215Z,51.00
2023-01-20T08:29:55.760Z,56.00
2023-01-20T08:34:59.119Z,59.50
2023-01-20T08:40:02.498Z,57.00
2023-01-20T08:45:10.874Z,50.00
2023-01-20T08:55:18.221Z,45.00
2023-01-20T09:00:21.915Z,50.00
2023-01-20T09:05:25.259Z,46.00
2023-01-20T09:10:28.768Z,36.00
2023-01-20T09:15:32.105Z,52.00
2023-01-20T09:20:36.060Z,53.00
2023-01-20T09:25:39.374Z,51.00
2023-01-20T09:30:43.917Z,49.00
2023-01-20T09:35:58.363Z,50.50
2023-01-20T09:41:26.423Z,53.00
2023-01-20T09:47:09.348Z,66.00
2023-01-20T09:52:51.999Z,63.00
2023-01-20T09:58:15.999Z,57.50
2023-01-20T10:03:37.288Z,44.00
2023-01-20T10:09:37.102Z,30.50
2023-01-20T10:16:00.365Z,46.00
2023-01-20T10:21:49.310Z,37.00
2023-01-20T10:27:03.103Z,37.50
2023-01-20T10:32:24.331Z,48.00
2023-01-20T10:37:28.530Z,47.50
2023-01-20T10:43:13.046Z,45.00
2023-01-20T10:49:39.177Z,32.00
2023-01-20T10:56:02.032Z,41.00
2023-01-20T11:01:13.854Z,43.00
2023-01-20T11:06:25.576Z,50.00
2023-01-20T11:12:29.566Z,44.67
2023-01-20T11:18:54.996Z,40.00
2023-01-20T11:25:33.115Z,35.00
2023-01-20T11:32:37.950Z,31.00
2023-01-20T11:39:23.080Z,48.00
2023-01-20T11:46:17.538Z,54.00
2023-01-20T11:52:14.685Z,54.00
2023-01-20T11:57:27.394Z,52.00
2023-01-20T12:02:34.090Z,28.00
2023-01-20T12:09:01.006Z,27.00
2023-01-20T12:15:33.953Z,37.00
2023-01-20T12:22:18.865Z,39.00
2023-01-20T12:29:15.763Z,51.00
2023-01-20T12:35:11.884Z,54.00
2023-01-20T12:41:31.669Z,56.00
2023-01-20T12:48:01.823Z,44.00
2023-01-20T13:01:47.415Z,34.00
2023-01-20T13:07:59.861Z,53.50
2023-01-20T13:14:55.892Z,55.50
2023-01-20T13:22:08.002Z,56.00
2023-01-20T13:28:36.748Z,48.00
2023-01-20T13:34:48.256Z,50.50
2023-01-20T13:41:09.834Z,40.00
2023-01-20T13:47:11.118Z,45.50
2023-01-20T13:54:27.475Z,53.00
2023-01-20T14:00:21.631Z,47.67
2023-01-20T14:06:33.660Z,39.00
2023-01-20T14:12:18.934Z,43.00
2023-01-20T14:17:28.412Z,39.00
2023-01-20T14:22:41.725Z,49.00
2023-01-20T14:28:39.233Z,48.00
2023-01-20T14:34:57.668Z,38.33
2023-01-20T14:41:13.069Z,52.00
2023-01-20T14:47:14.996Z,42.00
2023-01-20T14:53:21.921Z,45.00
2023-01-20T14:59:50.331Z,43.00
2023-01-20T15:06:17.850Z,43.67
2023-01-20T15:11:43.157Z,42.00
2023-01-20T23:25:10.587Z,27.00
2023-01-20T23:31:16.878Z,22.00
2023-01-20T23:46:40.703Z,24.00
2023-01-20T23:51:57.842Z,27.00
2023-01-20T23:57:32.180Z,19.00
